Time;durP1;ratioP1;P1;durP2;ratioP2;P2;SDS_P1;SDS_P2;PMS_P1;PMS_P2;Temp;Humidity;BMP_temperature;BMP_pressure;BME280_temperature;BME280_humidity;BME280_pressure;Samples;Min_cycle;Max_cycle;Signal;HPM_P1;HPM_P2
2023/07/09 00:01:37;;;;;;;20.52;15.68;;;;;;;;;;5074491;28;20024;-57
2023/07/09 00:04:04;;;;;;;22.40;15.35;;;;;;;;;;5074242;28;20025;-58
2023/07/09 00:06:29;;;;;;;21.38;15.38;;;;;;;;;;5074403;28;20024;-57
2023/07/09 00:08:55;;;;;;;21.48;15.95;;;;;;;;;;5074335;28;20033;-56
2023/07/09 00:11:22;;;;;;;19.67;15.32;;;;;;;;;;5074490;28;20035;-60
2023/07/09 00:13:47;;;;;;;20.17;15.02;;;;;;;;;;5073115;28;20036;-60
2023/07/09 00:16:15;;;;;;;21.23;15.65;;;;;;;;;;5072955;28;20060;-58
2023/07/09 00:18:41;;;;;;;20.25;15.20;;;;;;;;;;5073966;28;20025;-58
2023/07/09 00:21:07;;;;;;;19.83;15.75;;;;;;;;;;5074240;28;20020;-57
2023/07/09 00:23:33;;;;;;;21.42;15.80;;;;;;;;;;5074270;28;20358;-56
2023/07/09 00:25:59;;;;;;;21.13;16.55;;;;;;;;;;5074009;28;20031;-57
2023/07/09 00:28:25;;;;;;;21.40;15.70;;;;;;;;;;5073992;28;20027;-58
2023/07/09 00:30:51;;;;;;;22.85;16.67;;;;;;;;;;5074035;28;20032;-59
2023/07/09 00:33:20;;;;;;;20.85;15.90;;;;;;;;;;5073993;28;20029;-59
2023/07/09 00:35:48;;;;;;;21.38;16.15;;;;;;;;;;5072437;28;20046;-60
2023/07/09 00:38:21;;;;;;;22.55;15.80;;;;;;;;;;5073862;28;20021;-59
2023/07/09 00:40:48;;;;;;;21.20;15.30;;;;;;;;;;5073498;28;20020;-59
2023/07/09 00:43:16;;;;;;;22.00;16.43;;;;;;;;;;5073751;28;20039;-62
2023/07/09 00:45:42;;;;;;;20.83;16.13;;;;;;;;;;5073423;28;20036;-62
2023/07/09 00:48:12;;;;;;;21.95;15.85;;;;;;;;;;5073234;28;20025;-60
2023/07/09 00:50:46;;;;;;;22.05;15.90;;;;;;;;;;5073233;28;20024;-59
2023/07/09 00:53:18;;;;;;;23.55;15.75;;;;;;;;;;5073450;28;20017;-58
2023/07/09 00:55:45;;;;;;;23.42;16.80;;;;;;;;;;5073114;28;20489;-58
2023/07/09 00:58:15;;;;;;;23.05;15.82;;;;;;;;;;5071987;28;20033;-59
2023/07/09 01:00:47;;;;;;;22.38;16.58;;;;;;;;;;5073196;28;20024;-59
2023/07/09 01:03:16;;;;;;;21.27;15.68;;;;;;;;;;5073500;28;20024;-60
2023/07/09 01:05:43;;;;;;;20.77;15.88;;;;;;;;;;5073203;28;20024;-60
2023/07/09 01:08:09;;;;;;;20.88;15.55;;;;;;;;;;5073184;28;20016;-62
2023/07/09 01:10:35;;;;;;;20.33;15.07;;;;;;;;;;5072929;28;20043;-59
2023/07/09 01:13:02;;;;;;;22.50;15.52;;;;;;;;;;5072772;28;20033;-59
2023/07/09 01:15:28;;;;;;;22.40;15.52;;;;;;;;;;5071872;28;20032;-59
2023/07/09 01:17:54;;;;;;;21.83;15.50;;;;;;;;;;5072705;28;20085;-57
2023/07/09 01:20:20;;;;;;;24.00;15.85;;;;;;;;;;5072769;28;20028;-59
2023/07/09 01:22:48;;;;;;;21.60;15.23;;;;;;;;;;5072896;28;20055;-57
2023/07/09 01:25:15;;;;;;;22.73;16.23;;;;;;;;;;5072558;28;20021;-56
2023/07/09 01:27:42;;;;;;;25.80;15.73;;;;;;;;;;5072594;28;20112;-61
2023/07/09 01:30:14;;;;;;;21.38;15.80;;;;;;;;;;5072146;28;20073;-58
2023/07/09 01:32:45;;;;;;;19.80;15.48;;;;;;;;;;5072463;28;20043;-59
2023/07/09 01:35:13;;;;;;;19.95;14.90;;;;;;;;;;5072252;28;20028;-60
2023/07/09 01:37:39;;;;;;;20.55;15.07;;;;;;;;;;5072528;28;20020;-55
2023/07/09 01:40:06;;;;;;;22.90;15.25;;;;;;;;;;5072295;28;20034;-59
2023/07/09 01:42:33;;;;;;;21.30;15.05;;;;;;;;;;5072383;28;20529;-58
2023/07/09 01:44:59;;;;;;;22.17;15.13;;;;;;;;;;5072008;28;20081;-59
2023/07/09 01:47:25;;;;;;;19.80;14.75;;;;;;;;;;5072159;28;20028;-59
2023/07/09 01:49:56;;;;;;;21.23;14.98;;;;;;;;;;5072090;28;20107;-56
2023/07/09 01:52:23;;;;;;;22.67;15.75;;;;;;;;;;5072208;28;20036;-59
2023/07/09 01:54:49;;;;;;;22.02;15.32;;;;;;;;;;5071812;28;20141;-58
2023/07/09 01:57:23;;;;;;;22.92;15.35;;;;;;;;;;5072161;28;20016;-59
2023/07/09 01:59:49;;;;;;;19.60;14.65;;;;;;;;;;5071792;28;20052;-58
2023/07/09 02:02:18;;;;;;;28.48;16.48;;;;;;;;;;5071922;28;20487;-57
2023/07/09 02:04:45;;;;;;;28.08;20.13;;;;;;;;;;5072235;28;20024;-58
2023/07/09 02:07:10;;;;;;;23.35;17.30;;;;;;;;;;5071952;28;20048;-58
2023/07/09 02:09:37;;;;;;;22.17;15.95;;;;;;;;;;5071757;28;20068;-58
2023/07/09 02:12:03;;;;;;;21.70;15.07;;;;;;;;;;5071648;28;20079;-56
2023/07/09 02:14:29;;;;;;;20.77;15.20;;;;;;;;;;5071408;28;20469;-59
2023/07/09 02:16:55;;;;;;;22.10;15.35;;;;;;;;;;5070386;28;20054;-57
2023/07/09 02:19:21;;;;;;;20.92;15.55;;;;;;;;;;5071507;28;20119;-56
2023/07/09 02:21:47;;;;;;;22.45;15.75;;;;;;;;;;5071676;28;20477;-56
2023/07/09 02:24:13;;;;;;;19.92;14.27;;;;;;;;;;5069961;28;20052;-59
2023/07/09 02:26:39;;;;;;;21.58;15.73;;;;;;;;;;5069472;28;20357;-57
2023/07/09 02:29:05;;;;;;;21.75;15.68;;;;;;;;;;5071747;28;20031;-60
2023/07/09 02:31:31;;;;;;;21.73;14.88;;;;;;;;;;5070569;28;20028;-56
2023/07/09 02:33:57;;;;;;;21.55;14.65;;;;;;;;;;5071387;28;20024;-59
2023/07/09 02:36:25;;;;;;;21.58;15.75;;;;;;;;;;5071585;28;20039;-55
2023/07/09 02:38:50;;;;;;;20.52;15.18;;;;;;;;;;5071547;28;20032;-57
2023/07/09 02:41:16;;;;;;;23.13;15.20;;;;;;;;;;5071513;28;20017;-58
2023/07/09 02:43:43;;;;;;;22.23;15.20;;;;;;;;;;5071402;28;20515;-58
2023/07/09 02:46:09;;;;;;;20.73;14.65;;;;;;;;;;5071250;28;20031;-59
2023/07/09 02:48:35;;;;;;;21.05;15.20;;;;;;;;;;5071383;28;20150;-57
2023/07/09 02:51:01;;;;;;;21.35;14.55;;;;;;;;;;5071453;28;20487;-57
2023/07/09 02:53:27;;;;;;;20.05;14.80;;;;;;;;;;5070384;28;20021;-57
2023/07/09 02:55:53;;;;;;;24.27;15.55;;;;;;;;;;5071181;28;20025;-57
2023/07/09 02:58:19;;;;;;;20.70;15.43;;;;;;;;;;5071380;28;20031;-59
2023/07/09 03:00:51;;;;;;;21.75;15.65;;;;;;;;;;5071151;28;20029;-59
2023/07/09 03:03:18;;;;;;;21.67;14.57;;;;;;;;;;5071410;28;20024;-58
2023/07/09 03:05:45;;;;;;;20.90;15.35;;;;;;;;;;5069980;28;20380;-59
2023/07/09 03:08:11;;;;;;;21.25;14.80;;;;;;;;;;5071240;28;20020;-58
2023/07/09 03:10:37;;;;;;;21.77;15.35;;;;;;;;;;5071196;28;20103;-59
2023/07/09 03:13:03;;;;;;;22.25;14.90;;;;;;;;;;5071258;28;20071;-57
2023/07/09 03:15:29;;;;;;;22.60;14.98;;;;;;;;;;5070755;28;20020;-57
2023/07/09 03:17:55;;;;;;;20.40;13.93;;;;;;;;;;5071355;28;20101;-58
2023/07/09 03:20:21;;;;;;;22.67;14.38;;;;;;;;;;5071153;28;20427;-58
2023/07/09 03:22:47;;;;;;;21.35;14.15;;;;;;;;;;5069945;28;20032;-58
2023/07/09 03:25:13;;;;;;;22.73;15.75;;;;;;;;;;5070696;28;20052;-57
2023/07/09 03:27:39;;;;;;;21.90;14.70;;;;;;;;;;5070864;28;20439;-57
2023/07/09 03:30:06;;;;;;;20.45;14.88;;;;;;;;;;5070801;28;20074;-58
2023/07/09 03:32:32;;;;;;;20.92;14.90;;;;;;;;;;5071171;28;20396;-57
2023/07/09 03:34:58;;;;;;;19.88;14.35;;;;;;;;;;5069554;28;20033;-59
2023/07/09 03:37:24;;;;;;;19.90;14.27;;;;;;;;;;5072278;28;20028;-59
2023/07/09 03:39:50;;;;;;;20.75;14.88;;;;;;;;;;5074776;28;20025;-56
2023/07/09 03:42:16;;;;;;;20.50;14.32;;;;;;;;;;5074628;28;20028;-59
2023/07/09 03:44:42;;;;;;;22.95;14.75;;;;;;;;;;5074418;28;20137;-61
2023/07/09 03:47:08;;;;;;;20.40;14.68;;;;;;;;;;5074417;28;20028;-57
2023/07/09 03:49:34;;;;;;;21.67;14.65;;;;;;;;;;5074245;28;20484;-59
2023/07/09 03:52:00;;;;;;;21.23;15.02;;;;;;;;;;5074437;28;20033;-59
2023/07/09 03:54:26;;;;;;;20.92;14.90;;;;;;;;;;5072958;28;20097;-58
2023/07/09 03:56:52;;;;;;;20.20;15.15;;;;;;;;;;5074485;28;20396;-53
2023/07/09 03:59:18;;;;;;;20.92;15.18;;;;;;;;;;5073924;28;20496;-55
2023/07/09 04:01:44;;;;;;;22.60;15.20;;;;;;;;;;5074233;28;20021;-57
2023/07/09 04:04:10;;;;;;;21.65;15.32;;;;;;;;;;5073979;28;20025;-59
2023/07/09 04:06:36;;;;;;;20.38;14.73;;;;;;;;;;5074139;28;20029;-58
2023/07/09 04:09:02;;;;;;;20.90;14.38;;;;;;;;;;5074123;28;20026;-58
2023/07/09 04:11:28;;;;;;;23.17;15.23;;;;;;;;;;5074091;28;20461;-57
2023/07/09 04:13:54;;;;;;;20.92;15.20;;;;;;;;;;5074078;28;20061;-59
2023/07/09 04:16:20;;;;;;;23.95;15.60;;;;;;;;;;5072639;28;20128;-58
2023/07/09 04:18:46;;;;;;;20.48;15.35;;;;;;;;;;5072613;28;20399;-59
2023/07/09 04:21:12;;;;;;;21.15;16.05;;;;;;;;;;5074027;28;20033;-56
2023/07/09 04:23:38;;;;;;;22.50;15.35;;;;;;;;;;5074093;28;20024;-58
2023/07/09 04:26:04;;;;;;;22.30;15.18;;;;;;;;;;5073796;28;20027;-59
2023/07/09 04:28:30;;;;;;;23.17;14.98;;;;;;;;;;5073830;28;20469;-59
2023/07/09 04:30:56;;;;;;;20.75;15.15;;;;;;;;;;5072512;28;20037;-56
2023/07/09 04:33:22;;;;;;;20.15;15.20;;;;;;;;;;5073752;28;20031;-59
2023/07/09 04:35:49;;;;;;;23.00;15.80;;;;;;;;;;5073539;28;20055;-59
2023/07/09 04:38:15;;;;;;;22.58;16.00;;;;;;;;;;5073828;28;20117;-58
2023/07/09 04:40:41;;;;;;;22.25;15.80;;;;;;;;;;5073554;28;20466;-59
2023/07/09 04:43:07;;;;;;;21.58;15.20;;;;;;;;;;5073816;28;20027;-59
2023/07/09 04:45:34;;;;;;;19.90;13.73;;;;;;;;;;5073302;28;20020;-58
2023/07/09 04:48:00;;;;;;;20.90;15.30;;;;;;;;;;5073489;28;20013;-57
2023/07/09 04:50:26;;;;;;;21.73;15.27;;;;;;;;;;5066236;28;20033;-58
2023/07/09 04:52:52;;;;;;;21.17;15.02;;;;;;;;;;5071165;28;20020;-55
2023/07/09 04:55:18;;;;;;;20.65;14.98;;;;;;;;;;5072908;28;20094;-55
2023/07/09 04:57:45;;;;;;;21.83;15.15;;;;;;;;;;5073076;28;20033;-57
2023/07/09 05:00:11;;;;;;;24.00;16.52;;;;;;;;;;5073027;28;20545;-58
2023/07/09 05:02:37;;;;;;;21.70;15.93;;;;;;;;;;5073264;28;20024;-59
2023/07/09 05:05:03;;;;;;;21.25;14.57;;;;;;;;;;5072896;28;20473;-59
2023/07/09 05:07:29;;;;;;;21.58;15.07;;;;;;;;;;5073179;28;20088;-57
2023/07/09 05:09:55;;;;;;;26.58;15.50;;;;;;;;;;5072954;28;20085;-58
2023/07/09 05:12:21;;;;;;;20.77;16.10;;;;;;;;;;5073028;28;20028;-56
2023/07/09 05:14:47;;;;;;;21.88;15.77;;;;;;;;;;5072597;28;20017;-54
2023/07/09 05:17:13;;;;;;;22.55;16.15;;;;;;;;;;5071757;28;20119;-56
2023/07/09 05:19:39;;;;;;;19.65;15.05;;;;;;;;;;5072705;28;20491;-58
2023/07/09 05:22:05;;;;;;;20.13;15.13;;;;;;;;;;5072772;28;20028;-56
2023/07/09 05:24:31;;;;;;;22.90;15.38;;;;;;;;;;5071211;28;20028;-56
2023/07/09 05:26:57;;;;;;;20.58;15.32;;;;;;;;;;5072897;28;20021;-57
2023/07/09 05:29:23;;;;;;;22.88;15.38;;;;;;;;;;5072476;28;20032;-57
2023/07/09 05:31:49;;;;;;;21.20;15.10;;;;;;;;;;5071438;28;20068;-57
2023/07/09 05:34:15;;;;;;;21.10;15.38;;;;;;;;;;5072482;28;20052;-55
2023/07/09 05:36:41;;;;;;;19.42;15.18;;;;;;;;;;5072637;28;20445;-58
2023/07/09 05:39:07;;;;;;;23.67;16.73;;;;;;;;;;5072787;28;20033;-56
2023/07/09 05:41:33;;;;;;;21.63;15.75;;;;;;;;;;5072890;28;20020;-57
2023/07/09 05:43:59;;;;;;;22.00;15.77;;;;;;;;;;5072392;28;20032;-57
2023/07/09 05:46:25;;;;;;;21.63;15.32;;;;;;;;;;5072413;28;20032;-58
2023/07/09 05:48:51;;;;;;;19.77;14.60;;;;;;;;;;5072270;28;20112;-57
2023/07/09 05:51:17;;;;;;;21.67;15.43;;;;;;;;;;5072335;28;20495;-58
2023/07/09 05:53:43;;;;;;;20.90;15.95;;;;;;;;;;5072514;28;20017;-56
2023/07/09 05:56:10;;;;;;;22.00;15.60;;;;;;;;;;5072344;28;20021;-58
2023/07/09 05:58:37;;;;;;;21.08;15.65;;;;;;;;;;5070941;28;20507;-57
2023/07/09 06:01:03;;;;;;;23.80;16.15;;;;;;;;;;5073460;28;20055;-58
2023/07/09 06:03:29;;;;;;;20.73;16.25;;;;;;;;;;5072082;28;20020;-58
2023/07/09 06:05:57;;;;;;;25.85;16.38;;;;;;;;;;5071789;28;20024;-58
2023/07/09 06:08:23;;;;;;;20.30;15.43;;;;;;;;;;5071888;28;20021;-58
2023/07/09 06:10:56;;;;;;;21.15;15.43;;;;;;;;;;5072196;28;20366;-58
2023/07/09 06:13:22;;;;;;;21.27;14.80;;;;;;;;;;5071810;28;20028;-57
2023/07/09 06:15:49;;;;;;;20.42;15.05;;;;;;;;;;5071538;28;20035;-59
2023/07/09 06:18:15;;;;;;;20.70;15.10;;;;;;;;;;5071824;28;20032;-58
2023/07/09 06:20:41;;;;;;;23.85;17.05;;;;;;;;;;5071760;28;20034;-58
2023/07/09 06:23:07;;;;;;;21.08;15.30;;;;;;;;;;5071682;28;20021;-58
2023/07/09 06:25:33;;;;;;;21.58;15.55;;;;;;;;;;5071472;28;20041;-58
2023/07/09 06:27:59;;;;;;;20.55;15.32;;;;;;;;;;5071578;28;20012;-54
2023/07/09 06:30:25;;;;;;;21.73;15.43;;;;;;;;;;5071596;28;20500;-57
2023/07/09 06:32:51;;;;;;;22.02;14.90;;;;;;;;;;5071805;28;20032;-58
2023/07/09 06:35:17;;;;;;;22.42;15.05;;;;;;;;;;5068557;28;20032;-58
2023/07/09 06:37:43;;;;;;;21.65;14.38;;;;;;;;;;5071097;28;20024;-57
2023/07/09 06:40:09;;;;;;;23.90;14.88;;;;;;;;;;5071321;28;20473;-56
2023/07/09 06:42:36;;;;;;;19.30;14.90;;;;;;;;;;5071351;28;20481;-54
2023/07/09 06:45:03;;;;;;;21.65;15.40;;;;;;;;;;5058476;28;20036;-57
2023/07/09 06:47:29;;;;;;;21.52;14.73;;;;;;;;;;5051482;28;20441;-57
2023/07/09 06:49:55;;;;;;;20.45;15.05;;;;;;;;;;5051311;28;20032;-57
2023/07/09 06:52:21;;;;;;;20.30;15.05;;;;;;;;;;5053695;28;20033;-57
2023/07/09 06:54:49;;;;;;;20.45;14.82;;;;;;;;;;5071128;28;20037;-56
2023/07/09 06:57:15;;;;;;;20.33;14.82;;;;;;;;;;5071235;28;20275;-58
2023/07/09 06:59:41;;;;;;;19.90;15.77;;;;;;;;;;5069673;28;20071;-58
2023/07/09 07:02:06;;;;;;;20.77;15.30;;;;;;;;;;5071461;28;20446;-56
2023/07/09 07:04:32;;;;;;;18.42;14.80;;;;;;;;;;5069709;28;20024;-57
2023/07/09 07:06:58;;;;;;;20.08;14.40;;;;;;;;;;5071318;28;20029;-54
2023/07/09 07:09:24;;;;;;;22.55;16.08;;;;;;;;;;5068685;28;20388;-57
2023/07/09 07:11:51;;;;;;;21.42;15.73;;;;;;;;;;5050431;28;20036;-54
2023/07/09 07:14:17;;;;;;;19.77;14.57;;;;;;;;;;5054884;28;20037;-57
2023/07/09 07:16:43;;;;;;;19.20;14.55;;;;;;;;;;5055235;28;20021;-57
2023/07/09 07:19:09;;;;;;;21.33;14.73;;;;;;;;;;5055465;28;20096;-58
2023/07/09 07:21:35;;;;;;;20.75;14.02;;;;;;;;;;5055525;28;20025;-56
2023/07/09 07:24:01;;;;;;;21.50;15.95;;;;;;;;;;5055060;28;20393;-58
2023/07/09 07:26:27;;;;;;;20.55;14.95;;;;;;;;;;5054963;28;20096;-57
2023/07/09 07:28:53;;;;;;;21.42;14.45;;;;;;;;;;5054735;28;20392;-55
2023/07/09 07:31:19;;;;;;;21.02;15.85;;;;;;;;;;5055046;28;20021;-56
2023/07/09 07:33:45;;;;;;;20.20;14.90;;;;;;;;;;5054365;28;20027;-58
2023/07/09 07:36:11;;;;;;;22.95;14.80;;;;;;;;;;5055258;28;20033;-56
2023/07/09 07:38:37;;;;;;;19.90;14.48;;;;;;;;;;5073659;28;20086;-58
2023/07/09 07:41:03;;;;;;;20.13;14.80;;;;;;;;;;5074684;28;20365;-52
2023/07/09 07:43:29;;;;;;;19.05;14.70;;;;;;;;;;5074773;28;20028;-56
2023/07/09 07:45:55;;;;;;;20.02;15.15;;;;;;;;;;5074672;28;20032;-57
2023/07/09 07:48:21;;;;;;;20.10;15.15;;;;;;;;;;5074496;28;20028;-58
2023/07/09 07:50:47;;;;;;;24.00;15.02;;;;;;;;;;5074521;28;20405;-58
2023/07/09 07:53:14;;;;;;;19.23;14.70;;;;;;;;;;5074354;28;20473;-58
2023/07/09 07:55:41;;;;;;;18.98;14.65;;;;;;;;;;5074119;28;20062;-56
2023/07/09 07:58:07;;;;;;;24.55;15.30;;;;;;;;;;5074452;28;20032;-57
2023/07/09 08:00:33;;;;;;;22.60;14.85;;;;;;;;;;5074102;28;20089;-56
2023/07/09 08:02:59;;;;;;;20.35;14.85;;;;;;;;;;5074375;28;20104;-46
2023/07/09 08:05:25;;;;;;;18.90;14.10;;;;;;;;;;5074041;28;20429;-54
2023/07/09 08:07:51;;;;;;;23.45;15.93;;;;;;;;;;5074173;28;20021;-51
2023/07/09 08:10:17;;;;;;;22.13;14.70;;;;;;;;;;5074029;28;20119;-52
2023/07/09 08:12:43;;;;;;;20.45;15.15;;;;;;;;;;5074025;28;20035;-49
2023/07/09 08:15:09;;;;;;;19.88;14.98;;;;;;;;;;5073680;28;20040;-54
2023/07/09 08:17:35;;;;;;;19.35;15.75;;;;;;;;;;5073982;28;20028;-53
2023/07/09 08:20:01;;;;;;;21.65;16.30;;;;;;;;;;5072659;28;20029;-52
2023/07/09 08:22:27;;;;;;;20.65;15.85;;;;;;;;;;5073915;28;20385;-51
2023/07/09 08:24:53;;;;;;;20.67;15.77;;;;;;;;;;5072232;28;20450;-55
2023/07/09 08:27:20;;;;;;;22.45;16.02;;;;;;;;;;5073798;28;20021;-51
2023/07/09 08:29:46;;;;;;;20.60;15.45;;;;;;;;;;5073656;28;20047;-55
2023/07/09 08:32:12;;;;;;;21.05;16.20;;;;;;;;;;5073785;28;20036;-53
2023/07/09 08:34:39;;;;;;;22.80;15.88;;;;;;;;;;5073523;28;20020;-50
2023/07/09 08:37:05;;;;;;;21.65;15.75;;;;;;;;;;5073790;28;20032;-52
2023/07/09 08:39:31;;;;;;;20.85;16.42;;;;;;;;;;5070823;28;20036;-52
2023/07/09 08:41:59;;;;;;;21.17;15.65;;;;;;;;;;5072359;28;20024;-53
2023/07/09 08:44:35;;;;;;;21.27;15.40;;;;;;;;;;5066799;28;20040;-51
2023/07/09 08:47:09;;;;;;;21.10;15.38;;;;;;;;;;5073364;28;20048;-54
2023/07/09 08:49:46;;;;;;;21.70;16.02;;;;;;;;;;5073520;28;20099;-48
2023/07/09 08:52:35;;;;;;;20.57;15.70;;;;;;;;;;5073191;28;20024;-47
2023/07/09 08:55:05;;;;;;;21.38;16.33;;;;;;;;;;5052307;28;20285;-52
2023/07/09 08:57:34;;;;;;;21.05;15.80;;;;;;;;;;5071767;28;20035;-53
2023/07/09 09:00:02;;;;;;;21.40;16.15;;;;;;;;;;5071447;28;20039;-49
2023/07/09 09:02:32;;;;;;;21.40;16.30;;;;;;;;;;5072073;28;20032;-58
2023/07/09 09:04:58;;;;;;;22.90;15.82;;;;;;;;;;5071785;28;20089;-58
2023/07/09 09:07:36;;;;;;;22.65;16.73;;;;;;;;;;5072261;28;20017;-58
2023/07/09 09:10:03;;;;;;;24.67;17.40;;;;;;;;;;5072264;28;20609;-62
2023/07/09 09:12:48;;;;;;;21.90;16.75;;;;;;;;;;5072854;28;20028;-57
2023/07/09 09:15:18;;;;;;;20.83;16.80;;;;;;;;;;5072730;28;20032;-57
2023/07/09 09:17:44;;;;;;;22.38;16.85;;;;;;;;;;5072824;28;20032;-54
2023/07/09 09:20:12;;;;;;;24.20;16.92;;;;;;;;;;5072526;28;20027;-56
2023/07/09 09:22:44;;;;;;;23.73;16.10;;;;;;;;;;5072969;28;20025;-58
2023/07/09 09:25:16;;;;;;;22.75;16.80;;;;;;;;;;5072308;28;20021;-57
2023/07/09 09:27:43;;;;;;;20.23;16.25;;;;;;;;;;5072777;28;20488;-57
2023/07/09 09:30:14;;;;;;;22.48;16.38;;;;;;;;;;5072636;28;20041;-57
2023/07/09 09:32:44;;;;;;;22.38;15.95;;;;;;;;;;5072617;28;20024;-57
2023/07/09 09:35:14;;;;;;;22.35;17.17;;;;;;;;;;5072398;28;20097;-57
2023/07/09 09:37:40;;;;;;;21.00;16.13;;;;;;;;;;5072727;28;20036;-57
2023/07/09 09:40:09;;;;;;;20.30;16.60;;;;;;;;;;5072118;28;20037;-56
2023/07/09 09:42:35;;;;;;;20.88;16.65;;;;;;;;;;5071215;28;20121;-58
2023/07/09 09:45:02;;;;;;;20.83;16.63;;;;;;;;;;5072456;28;20021;-54
2023/07/09 09:47:28;;;;;;;20.73;16.08;;;;;;;;;;5072336;28;20020;-57
2023/07/09 09:49:54;;;;;;;23.17;16.20;;;;;;;;;;5069966;28;20025;-57
2023/07/09 09:52:20;;;;;;;21.17;16.88;;;;;;;;;;5072162;28;20094;-56
2023/07/09 09:55:01;;;;;;;20.00;16.60;;;;;;;;;;5072446;28;20100;-58
2023/07/09 09:57:28;;;;;;;21.42;16.33;;;;;;;;;;5071920;28;20480;-57
2023/07/09 09:59:57;;;;;;;23.42;16.20;;;;;;;;;;5071691;28;20025;-57
2023/07/09 10:02:24;;;;;;;21.30;16.05;;;;;;;;;;5070967;28;20024;-56
2023/07/09 10:04:51;;;;;;;22.40;16.05;;;;;;;;;;5058071;28;20112;-57
2023/07/09 10:07:23;;;;;;;22.33;15.95;;;;;;;;;;5058612;28;20071;-58
2023/07/09 10:09:51;;;;;;;20.85;17.00;;;;;;;;;;5060867;28;20021;-55
2023/07/09 10:12:25;;;;;;;20.85;16.15;;;;;;;;;;5060441;28;20036;-59
2023/07/09 10:15:04;;;;;;;29.52;17.25;;;;;;;;;;5060839;28;20025;-57
2023/07/09 10:17:37;;;;;;;22.17;16.60;;;;;;;;;;5061301;28;20025;-57
2023/07/09 10:20:08;;;;;;;26.65;16.25;;;;;;;;;;5071338;28;20024;-58
2023/07/09 10:22:37;;;;;;;22.15;16.00;;;;;;;;;;5071827;28;20103;-57
2023/07/09 10:25:10;;;;;;;20.73;15.90;;;;;;;;;;5063443;28;20024;-56
2023/07/09 10:27:41;;;;;;;21.95;15.45;;;;;;;;;;5058536;28;20074;-56
2023/07/09 10:30:20;;;;;;;21.40;15.73;;;;;;;;;;5059904;28;20384;-58
2023/07/09 10:32:49;;;;;;;23.27;15.90;;;;;;;;;;5059860;28;20101;-56
2023/07/09 10:35:18;;;;;;;22.83;16.27;;;;;;;;;;5061294;28;20426;-56
2023/07/09 10:37:51;;;;;;;19.02;14.98;;;;;;;;;;5061763;28;20040;-56
2023/07/09 10:40:18;;;;;;;21.63;14.95;;;;;;;;;;5060731;28;20025;-56
2023/07/09 10:42:51;;;;;;;20.00;16.55;;;;;;;;;;5059738;28;20035;-58
2023/07/09 10:45:22;;;;;;;19.58;16.40;;;;;;;;;;5056574;28;20029;-57
2023/07/09 10:47:49;;;;;;;20.83;14.93;;;;;;;;;;5050397;28;20029;-57
2023/07/09 10:50:38;;;;;;;21.30;15.40;;;;;;;;;;5051434;28;20017;-57
2023/07/09 10:53:12;;;;;;;19.58;16.10;;;;;;;;;;5058435;28;20039;-54
2023/07/09 10:55:44;;;;;;;20.30;15.32;;;;;;;;;;5071396;28;20545;-58
2023/07/09 10:58:23;;;;;;;20.65;15.77;;;;;;;;;;5071335;28;20036;-57
2023/07/09 11:00:50;;;;;;;21.00;15.52;;;;;;;;;;5071303;28;20032;-57
2023/07/09 11:03:15;;;;;;;20.25;15.63;;;;;;;;;;5071418;28;20021;-58
2023/07/09 11:05:42;;;;;;;20.15;15.40;;;;;;;;;;5071137;28;20393;-58
2023/07/09 11:08:26;;;;;;;20.33;16.02;;;;;;;;;;5068053;28;20039;-57
2023/07/09 11:11:15;;;;;;;22.00;16.02;;;;;;;;;;5070260;28;20086;-57
2023/07/09 11:14:03;;;;;;;21.98;16.42;;;;;;;;;;5057590;28;20045;-58
2023/07/09 11:16:31;;;;;;;20.05;16.23;;;;;;;;;;5050614;28;20374;-54
2023/07/09 11:19:03;;;;;;;18.92;15.82;;;;;;;;;;5069371;28;20052;-58
2023/07/09 11:21:29;;;;;;;19.55;16.05;;;;;;;;;;5070633;28;20033;-56
2023/07/09 11:23:59;;;;;;;22.08;16.23;;;;;;;;;;5070351;28;20435;-58
2023/07/09 11:26:25;;;;;;;21.52;16.13;;;;;;;;;;5070629;28;20028;-57
2023/07/09 11:28:55;;;;;;;20.67;16.30;;;;;;;;;;5070842;28;20048;-56
2023/07/09 11:31:44;;;;;;;21.02;16.50;;;;;;;;;;5070983;28;20024;-58
2023/07/09 11:34:13;;;;;;;21.17;16.25;;;;;;;;;;5066737;28;20028;-57
2023/07/09 11:36:48;;;;;;;20.83;16.20;;;;;;;;;;5070897;28;20020;-55
2023/07/09 11:39:29;;;;;;;19.95;16.90;;;;;;;;;;5070535;28;20048;-53
2023/07/09 11:41:55;;;;;;;19.83;16.42;;;;;;;;;;5070794;28;20016;-57
2023/07/09 11:44:23;;;;;;;20.38;16.55;;;;;;;;;;5070579;28;20441;-56
2023/07/09 11:46:49;;;;;;;;;;;;;;;;;;5069843;28;20049;-58
2023/07/09 11:49:15;;;;;;;19.75;15.98;;;;;;;;;;5056077;28;19908;-56
2023/07/09 11:51:45;;;;;;;21.50;16.05;;;;;;;;;;5063660;28;20556;-58
2023/07/09 11:54:13;;;;;;;21.00;15.50;;;;;;;;;;5052718;28;20100;-56
2023/07/09 11:56:39;;;;;;;19.90;15.27;;;;;;;;;;5049856;28;20025;-56
2023/07/09 11:59:06;;;;;;;19.02;15.55;;;;;;;;;;5052628;28;20032;-57
2023/07/09 12:01:44;;;;;;;19.20;15.13;;;;;;;;;;5055736;28;20037;-57
2023/07/09 12:04:17;;;;;;;20.20;15.07;;;;;;;;;;5054492;28;20045;-57
2023/07/09 12:06:44;;;;;;;18.80;15.32;;;;;;;;;;5054413;28;20508;-57
2023/07/09 12:09:15;;;;;;;20.20;15.25;;;;;;;;;;5054275;28;20025;-57
2023/07/09 12:11:44;;;;;;;21.13;15.68;;;;;;;;;;5054558;28;20036;-56
2023/07/09 12:14:12;;;;;;;18.30;14.80;;;;;;;;;;5053964;28;20033;-57
2023/07/09 12:16:42;;;;;;;20.00;15.65;;;;;;;;;;5054045;28;20097;-56
2023/07/09 12:19:10;;;;;;;19.98;15.27;;;;;;;;;;5053704;28;20032;-57
2023/07/09 12:21:38;;;;;;;19.52;16.00;;;;;;;;;;5053893;28;20036;-57
2023/07/09 12:24:14;;;;;;;20.30;16.08;;;;;;;;;;5053682;28;20381;-57
2023/07/09 12:26:42;;;;;;;20.23;16.40;;;;;;;;;;5053659;28;20051;-57
2023/07/09 12:29:08;;;;;;;19.75;15.93;;;;;;;;;;5053662;28;20033;-58
2023/07/09 12:31:34;;;;;;;19.50;15.13;;;;;;;;;;5070644;28;20028;-58
2023/07/09 12:34:00;;;;;;;20.02;15.43;;;;;;;;;;5073268;28;20029;-59
2023/07/09 12:36:27;;;;;;;18.40;15.77;;;;;;;;;;5073304;28;20031;-58
2023/07/09 12:38:57;;;;;;;22.30;16.15;;;;;;;;;;5073228;28;20016;-59
2023/07/09 12:41:25;;;;;;;20.48;15.70;;;;;;;;;;5073538;28;20420;-57
2023/07/09 12:43:53;;;;;;;18.58;15.85;;;;;;;;;;5073347;28;20070;-58
2023/07/09 12:46:19;;;;;;;;;;;;;;;;;;5072459;28;20122;-58
2023/07/09 12:48:48;;;;;;;19.50;16.05;;;;;;;;;;5073417;28;20326;-58
2023/07/09 12:51:16;;;;;;;23.13;16.85;;;;;;;;;;5073292;28;20111;-58
2023/07/09 12:53:42;;;;;;;20.10;15.90;;;;;;;;;;5072042;28;20082;-59
2023/07/09 12:56:13;;;;;;;19.95;16.13;;;;;;;;;;5072914;28;20029;-57
2023/07/09 12:58:39;;;;;;;19.83;16.30;;;;;;;;;;5071692;28;20024;-58
2023/07/09 13:01:08;;;;;;;21.77;16.23;;;;;;;;;;5072730;28;20074;-58
2023/07/09 13:03:34;;;;;;;21.23;16.65;;;;;;;;;;5072872;28;20020;-57
2023/07/09 13:06:01;;;;;;;22.00;16.40;;;;;;;;;;5072811;28;20033;-57
2023/07/09 13:08:28;;;;;;;18.85;15.73;;;;;;;;;;5072360;28;20067;-56
2023/07/09 13:10:56;;;;;;;20.48;16.00;;;;;;;;;;5071765;28;20035;-60
2023/07/09 13:13:21;;;;;;;;;;;;;;;;;;5073140;28;20032;-58
2023/07/09 13:15:56;;;;;;;20.37;16.17;;;;;;;;;;5072187;28;20295;-58
2023/07/09 13:18:23;;;;;;;20.67;16.42;;;;;;;;;;5072454;28;20104;-58
2023/07/09 13:20:49;;;;;;;19.05;15.40;;;;;;;;;;5072553;28;20033;-57
2023/07/09 13:23:15;;;;;;;20.02;16.60;;;;;;;;;;5072743;28;20366;-58
2023/07/09 13:25:41;;;;;;;21.38;16.15;;;;;;;;;;5072361;28;20030;-56
2023/07/09 13:28:21;;;;;;;18.80;15.73;;;;;;;;;;5072377;28;20020;-57
2023/07/09 13:30:47;;;;;;;21.55;16.00;;;;;;;;;;5072717;28;20422;-57
2023/07/09 13:33:14;;;;;;;20.70;16.05;;;;;;;;;;5072391;28;20496;-58
2023/07/09 13:35:41;;;;;;;20.63;15.95;;;;;;;;;;5071959;28;20020;-56
2023/07/09 13:38:14;;;;;;;19.15;15.52;;;;;;;;;;5072192;28;20028;-57
2023/07/09 13:40:40;;;;;;;18.83;16.00;;;;;;;;;;5072001;28;20112;-58
2023/07/09 13:43:13;;;;;;;18.17;15.90;;;;;;;;;;5072319;28;20031;-58
2023/07/09 13:45:39;;;;;;;17.27;15.25;;;;;;;;;;5072108;28;20032;-54
2023/07/09 13:48:12;;;;;;;21.23;15.95;;;;;;;;;;5072109;28;20029;-57
2023/07/09 13:50:38;;;;;;;19.38;15.93;;;;;;;;;;5072243;28;20033;-57
2023/07/09 13:53:05;;;;;;;19.45;16.05;;;;;;;;;;5072101;28;20028;-56
2023/07/09 13:55:32;;;;;;;18.77;15.57;;;;;;;;;;5071873;28;20025;-56
2023/07/09 13:57:58;;;;;;;20.38;15.65;;;;;;;;;;5054713;28;20025;-57
2023/07/09 14:00:25;;;;;;;20.05;15.95;;;;;;;;;;5051637;28;20029;-56
2023/07/09 14:02:51;;;;;;;19.20;16.08;;;;;;;;;;5051564;28;20477;-56
2023/07/09 14:05:17;;;;;;;19.80;16.02;;;;;;;;;;5051570;28;20100;-57
2023/07/09 14:07:43;;;;;;;18.38;15.98;;;;;;;;;;5051641;28;20021;-57
2023/07/09 14:10:12;;;;;;;20.52;15.80;;;;;;;;;;5071723;28;20025;-58
2023/07/09 14:12:40;;;;;;;19.17;16.08;;;;;;;;;;5071910;28;20036;-57
2023/07/09 14:15:12;;;;;;;19.50;15.90;;;;;;;;;;5071417;28;20461;-58
2023/07/09 14:17:38;;;;;;;21.92;16.95;;;;;;;;;;5071523;28;20074;-57
2023/07/09 14:20:04;;;;;;;21.30;16.58;;;;;;;;;;5071552;28;20029;-54
2023/07/09 14:22:32;;;;;;;19.17;15.90;;;;;;;;;;5071730;28;20448;-57